Terminal Aerodrome Forecast
Issued by NWS Wilmington, OH

Home | Current Version | Previous Version | Text Only | Print | Product List | Glossary On
Versions: 1 2 3 4 5 6 7 8 9 10 11 12 13 14 15 16 17 18 19 20 21 22 23 24 25 26 27 28 29 30
000
FTUS41 KILN 062334
TAFCVG
TAF
KCVG 062334Z 0700/0806 31010KT P6SM SCT250
     FM070300 28006KT P6SM SCT250
     FM071000 21006KT P6SM SCT120
     FM071500 26012G22KT P6SM BKN250
     FM072100 27012G22KT P6SM VCTS BKN040CB
     FM080200 33010KT P6SM BKN100=

USA.gov is the U.S. government's official web portal to all federal, state and local government web resources and services.